Rosa Maria Juarez — EA4469 — position and weather

sailwx.info

Track history (hours):
 
Tides and Currents Weather Stations Pressure Air Temp Water Temp Dewpoint Dewpoint Depression Visibility Wind Speed Wind Dir Waves Ship Positions

Rosa Maria Juarez

Last reported at 2017-Oct-17 22:49 UTC. Time now 2017-Oct-18 06:09 UTC.
Position N 37°58' W 000°40'.

Length 18 m.

Type: Fishing. MMSI: 224022730.

Date/timePositionNaut miles runAvg speedWind from/ knotsBaromVisibWave heightAir tempDewpointWater temp
2017-Oct-17 22:49N 37°58' W 000°40'1 2.3
2017-Oct-17 22:29N 37°58' W 000°41'0 0.0
2017-Oct-17 21:31N 37°58' W 000°41'0 0.0
2017-Oct-17 21:29N 37°58' W 000°41'0 0.0
2017-Oct-17 20:56N 37°58' W 000°41'0 0.0
2017-Oct-17 20:29N 37°58' W 000°41'0 0.0
2017-Oct-17 20:00N 37°58' W 000°41'0 0.0
2017-Oct-17 07:31N 37°58' W 000°41'0 0.1
2017-Oct-17 07:13N 37°58' W 000°41'0 2.2
2017-Oct-17 07:00N 37°58' W 000°41'4 8.3
2017-Oct-17 06:31N 37°60' W 000°36'4 8.7
2017-Oct-17 06:00N 38°02' W 000°32'5 0.8
2017-Oct-17 00:07N 37°58' W 000°29'0 0.4
2017-Oct-16 23:54N 37°58' W 000°29'4 4.5
2017-Oct-16 23:08N 37°59' W 000°33'1 8.6
2017-Oct-16 23:00N 37°59' W 000°34'4 8.2
2017-Oct-16 22:30N 37°58' W 000°40'1 2.2
2017-Oct-16 22:01N 37°58' W 000°41'0 0.0
2017-Oct-16 21:30N 37°58' W 000°41'0 0.0
2017-Oct-16 21:00N 37°58' W 000°41'0 0.0
2017-Oct-16 20:30N 37°58' W 000°41'0 0.0
2017-Oct-16 20:00N 37°58' W 000°41'0 0.0
2017-Oct-16 01:24N 37°58' W 000°41'0 0.0
2017-Oct-16 01:00N 37°58' W 000°41'0 0.0
2017-Oct-16 00:30N 37°58' W 000°41'0 0.0
2017-Oct-16 00:00N 37°58' W 000°41'0 0.0
2017-Oct-15 23:30N 37°58' W 000°41'0 0.0
2017-Oct-15 23:00N 37°58' W 000°41'0 0.0
2017-Oct-15 22:30N 37°58' W 000°41'0 0.0
2017-Oct-15 22:00N 37°58' W 000°41'0 0.0
2017-Oct-15 21:30N 37°58' W 000°41'0 0.0
2017-Oct-15 21:00N 37°58' W 000°41'0 0.0
2017-Oct-15 20:30N 37°58' W 000°41'0 0.0
2017-Oct-15 20:00N 37°58' W 000°41'0 0.0
2017-Oct-15 19:30N 37°58' W 000°41'  
2017-Oct-10 20:27N 37°58' W 000°41'0 0.8
2017-Oct-10 19:59N 37°58' W 000°41'0 0.0
2017-Oct-10 19:30N 37°58' W 000°41'0 0.0
2017-Oct-10 19:00N 37°58' W 000°41'0 0.0
2017-Oct-10 18:30N 37°58' W 000°41'0 0.0
2017-Oct-10 09:55N 37°58' W 000°41'0 0.0
2017-Oct-10 08:08N 37°58' W 000°41'0 0.0
2017-Oct-10 08:00N 37°58' W 000°41'0 0.3
2017-Oct-10 07:30N 37°58' W 000°41'3 6.9
2017-Oct-10 07:00N 37°59' W 000°37'5 9.3
2017-Oct-10 06:30N 38°00' W 000°31'2 0.3
2017-Oct-09 23:14N 37°58' W 000°31'1 4.4
2017-Oct-09 23:00N 37°57' W 000°31'0 0.5
2017-Oct-09 22:25N 37°57' W 000°31'1 2.2
2017-Oct-09 21:56N 37°56' W 000°31'3 6.2
2017-Oct-09 21:30N 37°53' W 000°32'1 1.9
2017-Oct-09 20:59N 37°54' W 000°32'3 6.4
2017-Oct-09 20:30N 37°55' W 000°35'4 7.8
2017-Oct-09 20:00N 37°57' W 000°40'2 3.5
2017-Oct-09 19:30N 37°58' W 000°41'0 0.0
2017-Oct-09 19:00N 37°58' W 000°41'0 0.0
2017-Oct-09 18:30N 37°58' W 000°41'0 0.0
2017-Oct-09 06:35N 37°58' W 000°41'0 0.1
2017-Oct-09 06:30N 37°58' W 000°41'0 0.1
2017-Oct-09 06:00N 37°58' W 000°41'0 0.0
2017-Oct-09 05:30N 37°58' W 000°41'0 0.0
2017-Oct-09 05:00N 37°58' W 000°41'1 1.6
2017-Oct-09 04:30N 37°58' W 000°41'5 9.0
2017-Oct-09 04:00N 37°56' W 000°36'4 7.6
2017-Oct-09 03:30N 37°54' W 000°32'0 0.4
2017-Oct-09 03:00N 37°54' W 000°32'0 0.4
2017-Oct-09 02:30N 37°54' W 000°32'3 6.0
2017-Oct-09 02:00N 37°56' W 000°29'1 1.5
2017-Oct-09 01:30N 37°56' W 000°28'2 3.0
2017-Oct-09 00:48N 37°54' W 000°30'2 6.6
2017-Oct-09 00:30N 37°55' W 000°32'0 0.9
2017-Oct-09 00:00N 37°55' W 000°32'0 0.6
2017-Oct-08 23:30N 37°55' W 000°32'0 0.4
2017-Oct-08 23:00N 37°54' W 000°32'2 3.7
2017-Oct-08 22:30N 37°54' W 000°34'4 7.6
2017-Oct-08 22:00N 37°56' W 000°39'3 5.9
2017-Oct-08 21:30N 37°58' W 000°41'0 0.0
2017-Oct-08 21:00N 37°58' W 000°41'0 0.0
2017-Oct-08 20:30N 37°58' W 000°41'  
Track history (hours):
 
Tides and Currents Weather Stations Pressure Air Temp Water Temp Dewpoint Dewpoint Depression Visibility Wind Speed Wind Dir Waves Ship Positions

Rosa Maria Juarez

Last reported at 2017-Oct-17 22:49 UTC. Time now 2017-Oct-18 06:09 UTC.
Position N 37°58' W 000°40'.

Length 18 m.

Type: Fishing. MMSI: 224022730.

Date/timePositionNaut miles runAvg speedWind from/ knotsBaromVisibWave heightAir tempDewpointWater temp
2017-Oct-17 22:49N 37°58' W 000°40'1 2.3
2017-Oct-17 22:29N 37°58' W 000°41'0 0.0
2017-Oct-17 21:31N 37°58' W 000°41'0 0.0
2017-Oct-17 21:29N 37°58' W 000°41'0 0.0
2017-Oct-17 20:56N 37°58' W 000°41'0 0.0
2017-Oct-17 20:29N 37°58' W 000°41'0 0.0
2017-Oct-17 20:00N 37°58' W 000°41'0 0.0
2017-Oct-17 07:31N 37°58' W 000°41'0 0.1
2017-Oct-17 07:13N 37°58' W 000°41'0 2.2
2017-Oct-17 07:00N 37°58' W 000°41'4 8.3
2017-Oct-17 06:31N 37°60' W 000°36'4 8.7
2017-Oct-17 06:00N 38°02' W 000°32'5 0.8
2017-Oct-17 00:07N 37°58' W 000°29'0 0.4
2017-Oct-16 23:54N 37°58' W 000°29'4 4.5
2017-Oct-16 23:08N 37°59' W 000°33'1 8.6
2017-Oct-16 23:00N 37°59' W 000°34'4 8.2
2017-Oct-16 22:30N 37°58' W 000°40'1 2.2
2017-Oct-16 22:01N 37°58' W 000°41'0 0.0
2017-Oct-16 21:30N 37°58' W 000°41'0 0.0
2017-Oct-16 21:00N 37°58' W 000°41'0 0.0
2017-Oct-16 20:30N 37°58' W 000°41'0 0.0
2017-Oct-16 20:00N 37°58' W 000°41'0 0.0
2017-Oct-16 01:24N 37°58' W 000°41'0 0.0
2017-Oct-16 01:00N 37°58' W 000°41'0 0.0
2017-Oct-16 00:30N 37°58' W 000°41'0 0.0
2017-Oct-16 00:00N 37°58' W 000°41'0 0.0
2017-Oct-15 23:30N 37°58' W 000°41'0 0.0
2017-Oct-15 23:00N 37°58' W 000°41'0 0.0
2017-Oct-15 22:30N 37°58' W 000°41'0 0.0
2017-Oct-15 22:00N 37°58' W 000°41'0 0.0
2017-Oct-15 21:30N 37°58' W 000°41'0 0.0
2017-Oct-15 21:00N 37°58' W 000°41'0 0.0
2017-Oct-15 20:30N 37°58' W 000°41'0 0.0
2017-Oct-15 20:00N 37°58' W 000°41'0 0.0
2017-Oct-15 19:30N 37°58' W 000°41'  
2017-Oct-10 20:27N 37°58' W 000°41'0 0.8
2017-Oct-10 19:59N 37°58' W 000°41'0 0.0
2017-Oct-10 19:30N 37°58' W 000°41'0 0.0
2017-Oct-10 19:00N 37°58' W 000°41'0 0.0
2017-Oct-10 18:30N 37°58' W 000°41'0 0.0
2017-Oct-10 09:55N 37°58' W 000°41'0 0.0
2017-Oct-10 08:08N 37°58' W 000°41'0 0.0
2017-Oct-10 08:00N 37°58' W 000°41'0 0.3
2017-Oct-10 07:30N 37°58' W 000°41'3 6.9
2017-Oct-10 07:00N 37°59' W 000°37'5 9.3
2017-Oct-10 06:30N 38°00' W 000°31'2 0.3
2017-Oct-09 23:14N 37°58' W 000°31'1 4.4
2017-Oct-09 23:00N 37°57' W 000°31'0 0.5
2017-Oct-09 22:25N 37°57' W 000°31'1 2.2
2017-Oct-09 21:56N 37°56' W 000°31'3 6.2
2017-Oct-09 21:30N 37°53' W 000°32'1 1.9
2017-Oct-09 20:59N 37°54' W 000°32'3 6.4
2017-Oct-09 20:30N 37°55' W 000°35'4 7.8
2017-Oct-09 20:00N 37°57' W 000°40'2 3.5
2017-Oct-09 19:30N 37°58' W 000°41'0 0.0
2017-Oct-09 19:00N 37°58' W 000°41'0 0.0
2017-Oct-09 18:30N 37°58' W 000°41'0 0.0
2017-Oct-09 06:35N 37°58' W 000°41'0 0.1
2017-Oct-09 06:30N 37°58' W 000°41'0 0.1
2017-Oct-09 06:00N 37°58' W 000°41'0 0.0
2017-Oct-09 05:30N 37°58' W 000°41'0 0.0
2017-Oct-09 05:00N 37°58' W 000°41'1 1.6
2017-Oct-09 04:30N 37°58' W 000°41'5 9.0
2017-Oct-09 04:00N 37°56' W 000°36'4 7.6
2017-Oct-09 03:30N 37°54' W 000°32'0 0.4
2017-Oct-09 03:00N 37°54' W 000°32'0 0.4
2017-Oct-09 02:30N 37°54' W 000°32'3 6.0
2017-Oct-09 02:00N 37°56' W 000°29'1 1.5
2017-Oct-09 01:30N 37°56' W 000°28'2 3.0
2017-Oct-09 00:48N 37°54' W 000°30'2 6.6
2017-Oct-09 00:30N 37°55' W 000°32'0 0.9
2017-Oct-09 00:00N 37°55' W 000°32'0 0.6
2017-Oct-08 23:30N 37°55' W 000°32'0 0.4
2017-Oct-08 23:00N 37°54' W 000°32'2 3.7
2017-Oct-08 22:30N 37°54' W 000°34'4 7.6
2017-Oct-08 22:00N 37°56' W 000°39'3 5.9
2017-Oct-08 21:30N 37°58' W 000°41'0 0.0
2017-Oct-08 21:00N 37°58' W 000°41'0 0.0
2017-Oct-08 20:30N 37°58' W 000°41'  

Dump ship's entire track history